Time;durP1;ratioP1;P1;durP2;ratioP2;P2;SDS_P1;SDS_P2;PMS_P1;PMS_P2;Temp;Humidity;BMP_temperature;BMP_pressure;BME280_temperature;BME280_humidity;BME280_pressure;Samples;Min_cycle;Max_cycle;Signal;HPM_P1;HPM_P2
2022/04/18 00:00:04;;;;;;;6.60;2.20;;;;;;;3.46;66.72;99151.09;4988072;28;20030;-68
2022/04/18 00:02:29;;;;;;;5.05;2.00;;;;;;;3.28;66.42;99137.66;4990319;28;20026;-68
2022/04/18 00:04:55;;;;;;;4.05;1.65;;;;;;;3.34;67.73;99158.44;4988160;28;20037;-68
2022/04/18 00:07:20;;;;;;;2.47;1.58;;;;;;;3.48;67.20;99144.59;4991710;28;20286;-68
2022/04/18 00:09:45;;;;;;;4.72;1.92;;;;;;;3.27;66.58;99114.56;4983414;28;20022;-68
2022/04/18 00:12:11;;;;;;;3.63;1.90;;;;;;;3.22;67.58;99120.38;4988190;28;20049;-68
2022/04/18 00:14:36;;;;;;;2.72;1.52;;;;;;;3.39;67.03;99136.63;4991396;28;20387;-68
2022/04/18 00:17:01;;;;;;;4.22;1.60;;;;;;;3.40;67.27;99143.63;4985880;28;20132;-68
2022/04/18 00:19:27;;;;;;;5.00;2.15;;;;;;;3.32;67.36;99130.16;4990662;28;20026;-68
2022/04/18 00:21:52;;;;;;;3.30;1.75;;;;;;;3.31;66.93;99131.16;4991054;28;20488;-68
2022/04/18 00:24:20;;;;;;;5.70;2.72;;;;;;;3.13;67.92;99109.72;4985953;28;20022;-68
2022/04/18 00:26:47;;;;;;;17.92;6.90;;;;;;;3.36;68.66;99132.41;4991491;28;20102;-68
2022/04/18 00:29:12;;;;;;;5.93;3.13;;;;;;;3.35;68.41;99133.38;4989375;28;20026;-68
2022/04/18 00:31:38;;;;;;;4.30;1.95;;;;;;;3.27;68.20;99134.16;4991709;28;20050;-69
2022/04/18 00:34:04;;;;;;;4.45;2.08;;;;;;;3.21;68.78;99129.38;4987651;28;20527;-69
2022/04/18 00:36:30;;;;;;;3.83;1.77;;;;;;;3.06;68.79;99125.50;4990513;28;20031;-69
2022/04/18 00:38:55;;;;;;;3.78;1.88;;;;;;;3.06;67.98;99130.84;4991328;28;20392;-69
2022/04/18 00:41:20;;;;;;;3.55;1.80;;;;;;;3.04;67.93;99127.50;4991923;28;20045;-69
2022/04/18 00:43:50;;;;;;;3.65;1.70;;;;;;;3.10;69.04;99126.91;4984098;28;20022;-69
2022/04/18 00:46:17;;;;;;;;;;;;;;;3.13;70.23;99123.94;5002713;28;20034;-69
2022/04/18 00:48:43;;;;;;;4.88;2.30;;;;;;;2.80;69.90;99096.81;4989486;28;19914;-69
2022/04/18 00:51:11;;;;;;;2.92;1.88;;;;;;;2.91;70.76;99124.28;4991236;28;20038;-68
2022/04/18 00:53:39;;;;;;;4.22;1.77;;;;;;;2.83;70.64;99115.19;4987335;28;20427;-69
2022/04/18 00:56:10;;;;;;;6.13;2.00;;;;;;;2.88;71.25;99122.75;4987017;28;20034;-69
2022/04/18 00:58:36;;;;;;;3.20;2.10;;;;;;;2.81;70.65;99114.50;4992211;28;20045;-69
2022/04/18 01:01:02;;;;;;;2.90;1.75;;;;;;;2.85;70.42;99107.03;4986759;28;20056;-69
2022/04/18 01:03:30;;;;;;;3.75;2.10;;;;;;;2.79;69.50;99108.44;4989058;28;20468;-69
2022/04/18 01:05:58;;;;;;;5.82;2.08;;;;;;;2.77;70.87;99082.88;4990350;28;20480;-69
2022/04/18 01:08:25;;;;;;;5.35;2.13;;;;;;;2.77;70.64;99074.84;4988650;28;20116;-69
2022/04/18 01:10:51;;;;;;;3.53;1.83;;;;;;;2.83;71.17;99082.31;4984231;28;20044;-69
2022/04/18 01:13:17;;;;;;;3.92;2.20;;;;;;;2.88;71.77;99090.69;4991824;28;20026;-69
2022/04/18 01:15:42;;;;;;;3.20;1.90;;;;;;;2.89;70.80;99104.91;4988892;28;20034;-70
2022/04/18 01:18:07;;;;;;;4.85;2.30;;;;;;;2.84;72.39;99105.34;4990222;28;20053;-69
2022/04/18 01:20:34;;;;;;;4.20;2.00;;;;;;;2.77;72.60;99094.38;4992311;28;20106;-69
2022/04/18 01:23:01;;;;;;;3.42;1.88;;;;;;;2.56;72.28;99077.75;4985957;28;20076;-70
2022/04/18 01:30:55;;;;;;;5.03;2.25;;;;;;;2.09;73.71;99049.19;4990540;28;20650;-69
2022/04/18 01:33:21;;;;;;;4.35;2.25;;;;;;;2.27;74.10;99099.19;4988361;28;20034;-69
2022/04/18 01:35:46;;;;;;;2.20;1.83;;;;;;;2.12;74.75;99072.09;4984311;28;20030;-69
2022/04/18 01:38:12;;;;;;;3.97;2.35;;;;;;;2.23;74.35;99079.09;4991328;28;20464;-69
2022/04/18 01:40:38;;;;;;;6.28;2.20;;;;;;;2.32;74.05;99087.09;4986480;28;20038;-69
2022/04/18 01:43:04;;;;;;;3.63;1.80;;;;;;;2.42;73.16;99085.22;4990884;28;20030;-69
2022/04/18 01:45:29;;;;;;;2.78;1.75;;;;;;;2.30;72.37;99069.53;4989435;28;20061;-70
2022/04/18 01:47:54;;;;;;;4.68;1.95;;;;;;;2.44;72.30;99089.56;4989982;28;20065;-70
2022/04/18 01:50:19;;;;;;;5.07;2.30;;;;;;;2.45;71.26;99078.75;4991089;28;20372;-70
2022/04/18 01:52:45;;;;;;;3.67;2.00;;;;;;;2.45;71.76;99076.09;4986716;28;20045;-69
2022/04/18 01:55:10;;;;;;;4.07;1.98;;;;;;;2.58;70.94;99073.09;4988880;28;20034;-70
2022/04/18 01:57:36;;;;;;;3.95;1.90;;;;;;;2.64;69.86;99076.00;4995906;28;20387;-70
2022/04/18 02:00:01;;;;;;;3.15;2.22;;;;;;;2.62;69.48;99083.34;4995008;28;20512;-70
2022/04/18 02:02:27;;;;;;;3.55;1.95;;;;;;;2.46;68.81;99044.88;4988909;28;20034;-70
2022/04/18 02:04:52;;;;;;;4.68;2.95;;;;;;;2.68;69.90;99075.75;4993663;28;20034;-70
2022/04/18 02:07:17;;;;;;;2.53;1.98;;;;;;;2.51;71.10;99075.50;4992619;28;20058;-70
2022/04/18 02:09:43;;;;;;;3.03;2.05;;;;;;;2.46;71.32;99064.41;4990681;28;20105;-69
2022/04/18 02:12:08;;;;;;;4.15;2.10;;;;;;;2.30;71.71;99053.50;4995765;28;20038;-68
2022/04/18 02:14:34;;;;;;;2.63;2.00;;;;;;;2.25;72.66;99040.59;4984823;28;20034;-68
2022/04/18 02:16:59;;;;;;;3.92;2.30;;;;;;;2.27;71.93;99030.59;4992316;28;20034;-68
2022/04/18 02:19:25;;;;;;;2.60;1.70;;;;;;;2.29;69.69;99042.00;4994200;28;20038;-68
2022/04/18 02:21:50;;;;;;;4.05;1.88;;;;;;;2.34;68.45;99037.06;4993574;28;20022;-68
2022/04/18 02:24:15;;;;;;;5.32;2.10;;;;;;;2.31;68.69;99029.34;4990988;28;20035;-68
2022/04/18 02:26:40;;;;;;;3.80;2.00;;;;;;;2.44;68.32;99041.50;4994285;28;20384;-68
2022/04/18 02:29:06;;;;;;;3.08;1.90;;;;;;;2.48;68.27;99050.94;4995483;28;20045;-68
2022/04/18 02:31:31;;;;;;;2.45;1.90;;;;;;;2.33;69.17;99039.84;4992995;28;20037;-69
2022/04/18 02:33:56;;;;;;;5.57;2.00;;;;;;;2.35;70.93;99045.91;4995279;28;20030;-69
2022/04/18 02:36:22;;;;;;;7.82;2.53;;;;;;;2.25;71.93;99039.75;4997034;28;20038;-69
2022/04/18 02:38:47;;;;;;;3.22;1.92;;;;;;;2.11;72.85;99028.53;4994414;28;20026;-69
2022/04/18 02:41:12;;;;;;;3.45;1.70;;;;;;;2.21;72.43;99036.53;4992976;28;20428;-68
2022/04/18 02:43:37;;;;;;;3.63;2.00;;;;;;;2.23;71.79;99031.91;4993567;28;20032;-69
2022/04/18 02:46:03;;;;;;;3.80;1.65;;;;;;;2.11;71.04;99006.34;4987457;28;20098;-69
2022/04/18 02:48:31;;;;;;;4.15;2.20;;;;;;;2.31;67.88;99034.69;4991900;28;20034;-69
2022/04/18 02:50:57;;;;;;;2.90;1.70;;;;;;;2.40;68.30;99031.13;4990248;28;20380;-69
2022/04/18 02:53:22;;;;;;;4.38;1.73;;;;;;;2.30;68.16;98994.78;4996069;28;20029;-69
2022/04/18 02:55:47;;;;;;;2.80;1.67;;;;;;;2.56;66.51;99016.31;4990054;28;20103;-68
2022/04/18 02:58:13;;;;;;;3.58;1.58;;;;;;;2.85;62.71;99025.03;4995336;28;20160;-68
2022/04/18 03:00:38;;;;;;;2.55;1.75;;;;;;;2.97;63.97;99017.66;4991401;28;20045;-69
2022/04/18 03:03:03;;;;;;;3.45;1.73;;;;;;;3.03;63.39;99030.41;4992805;28;20049;-68
2022/04/18 03:05:29;;;;;;;3.20;1.83;;;;;;;2.95;63.95;99021.47;4987061;28;20044;-68
2022/04/18 03:07:54;;;;;;;3.22;1.65;;;;;;;2.70;65.30;99001.63;4992451;28;20120;-68
2022/04/18 03:11:02;;;;;;;2.80;1.65;;;;;;;2.65;66.31;99020.78;4991916;28;20030;-68
2022/04/18 03:13:05;;;;;;;5.78;1.70;;;;;;;2.70;66.40;99025.66;4988608;28;20038;-67
2022/04/18 03:15:30;;;;;;;5.97;1.92;;;;;;;2.56;66.91;99022.50;4989568;28;20042;-68
2022/04/18 03:17:56;;;;;;;2.35;1.67;;;;;;;2.46;67.40;99002.16;4992037;28;20058;-68
2022/04/18 03:20:21;;;;;;;3.72;1.70;;;;;;;2.58;67.57;99025.03;5004029;28;20133;-68
2022/04/18 03:22:46;;;;;;;5.88;1.88;;;;;;;2.59;68.23;99024.91;4992927;28;20472;-68
2022/04/18 03:25:11;;;;;;;5.60;2.13;;;;;;;2.33;68.65;98997.16;4991913;28;20034;-68
2022/04/18 03:27:37;;;;;;;3.28;1.80;;;;;;;2.43;67.36;99016.66;4992405;28;20035;-68
2022/04/18 03:30:02;;;;;;;4.97;1.75;;;;;;;2.37;66.40;98998.53;4988646;28;21575;-68
2022/04/18 03:32:27;;;;;;;4.30;1.70;;;;;;;2.44;67.05;99017.47;4992636;28;20104;-68
2022/04/18 03:34:53;;;;;;;4.00;1.38;;;;;;;2.42;66.73;99014.97;4989884;28;20054;-68
2022/04/18 03:40:07;;;;;;;4.40;1.90;;;;;;;2.78;62.79;98991.06;4984366;28;20049;-68
2022/04/18 03:42:32;;;;;;;3.72;1.98;;;;;;;2.76;62.77;98993.88;4992614;28;20038;-68
2022/04/18 03:45:03;;;;;;;4.88;1.83;;;;;;;2.89;64.00;99008.72;4990493;28;20038;-68
2022/04/18 03:47:29;;;;;;;2.47;1.50;;;;;;;2.81;64.76;98999.59;4994043;28;20026;-68
2022/04/18 03:49:55;;;;;;;3.00;1.70;;;;;;;2.75;66.01;98997.53;4993812;28;20112;-68
2022/04/18 03:52:21;;;;;;;5.47;1.73;;;;;;;2.60;63.45;98965.13;4988369;28;20444;-68
2022/04/18 03:54:46;;;;;;;4.78;1.75;;;;;;;2.78;63.03;99001.75;4990842;28;20476;-68
2022/04/18 03:57:12;;;;;;;5.85;1.90;;;;;;;2.60;65.24;98999.84;4990301;28;20032;-68
2022/04/18 03:59:38;;;;;;;3.58;1.77;;;;;;;2.57;66.78;98999.31;4989588;28;20022;-68
2022/04/18 04:02:03;;;;;;;2.80;1.42;;;;;;;2.36;67.17;98992.38;4988625;28;20109;-67
2022/04/18 04:04:29;;;;;;;6.13;2.53;;;;;;;2.11;68.24;98985.84;4990078;28;20508;-68
2022/04/18 04:06:54;;;;;;;3.83;1.80;;;;;;;2.08;67.87;98987.97;4993840;28;20026;-68
2022/04/18 04:09:19;;;;;;;2.67;1.70;;;;;;;2.02;68.36;98992.06;4988132;28;20022;-68
2022/04/18 04:11:45;;;;;;;2.70;1.73;;;;;;;1.97;66.56;98972.97;4987150;28;20061;-68
2022/04/18 04:14:10;;;;;;;2.50;1.60;;;;;;;2.18;66.56;98965.59;4981812;28;20429;-68
2022/04/18 04:16:38;;;;;;;3.55;1.95;;;;;;;2.40;65.79;98979.56;4990419;28;20030;-68
2022/04/18 04:19:04;;;;;;;3.85;1.77;;;;;;;2.39;64.84;98978.72;4991388;28;20034;-68
2022/04/18 04:21:29;;;;;;;4.25;1.38;;;;;;;2.35;65.15;98963.97;4982454;28;20473;-68
2022/04/18 04:23:54;;;;;;;4.18;2.00;;;;;;;2.37;65.73;98964.66;4992004;28;20559;-68
2022/04/18 04:26:20;;;;;;;6.32;1.80;;;;;;;2.37;66.90;98991.38;4988524;28;20014;-68
2022/04/18 04:28:45;;;;;;;3.33;1.83;;;;;;;2.28;67.28;98986.94;4979336;28;20046;-68
2022/04/18 04:31:10;;;;;;;5.88;3.10;;;;;;;2.20;67.60;98981.44;4988504;28;20053;-68
2022/04/18 04:33:36;;;;;;;6.03;2.55;;;;;;;1.94;68.82;98992.78;4989790;28;20046;-68
2022/04/18 04:36:01;;;;;;;5.35;2.30;;;;;;;1.82;68.34;98979.75;4988801;28;20060;-69
2022/04/18 04:38:27;;;;;;;4.38;2.10;;;;;;;2.16;66.18;98988.91;4992549;28;20387;-69
2022/04/18 04:40:53;;;;;;;5.20;2.83;;;;;;;2.29;65.00;98983.25;4988824;28;20022;-68
2022/04/18 04:43:20;;;;;;;3.35;2.10;;;;;;;2.50;62.92;98959.00;4991472;28;20113;-69
2022/04/18 04:45:45;;;;;;;3.85;1.90;;;;;;;2.92;61.40;98989.72;4989210;28;20049;-70
2022/04/18 04:48:11;;;;;;;4.10;1.95;;;;;;;2.89;61.35;98931.22;4979187;28;20084;-74
2022/04/18 04:50:37;;;;;;;4.70;2.00;;;;;;;3.39;59.95;98976.97;4982185;28;20041;-72
2022/04/18 04:53:03;;;;;;;5.10;2.17;;;;;;;3.37;61.72;98978.97;4981721;28;20042;-72
2022/04/18 04:55:28;;;;;;;5.95;2.30;;;;;;;3.16;62.39;98971.25;4997057;28;20030;-72
2022/04/18 04:57:53;;;;;;;3.85;2.10;;;;;;;3.10;63.36;98981.72;4992410;28;20031;-72
2022/04/18 05:00:19;;;;;;;2.97;1.90;;;;;;;2.79;65.08;98958.84;4987737;28;20026;-74
2022/04/18 05:02:45;;;;;;;6.95;1.92;;;;;;;2.89;66.00;98998.88;4992900;28;20048;-74
2022/04/18 05:05:10;;;;;;;4.65;2.08;;;;;;;2.72;63.78;98968.44;4991759;28;20049;-73
2022/04/18 05:07:36;;;;;;;8.15;2.10;;;;;;;3.00;63.43;98992.47;4986840;28;20030;-75
2022/04/18 05:10:01;;;;;;;3.95;2.25;;;;;;;3.03;62.36;98984.13;4987094;28;20030;-73
2022/04/18 05:12:28;;;;;;;3.10;1.83;;;;;;;3.22;61.88;98984.03;4990208;28;20030;-73
2022/04/18 05:14:54;;;;;;;4.57;2.13;;;;;;;3.37;60.91;98978.13;4991196;28;20037;-73
2022/04/18 05:17:19;;;;;;;2.72;1.77;;;;;;;3.54;60.02;98971.06;4991652;28;20407;-75
2022/04/18 05:19:45;;;;;;;6.82;2.40;;;;;;;3.85;58.37;98982.19;4987556;28;20069;-73
2022/04/18 05:22:11;;;;;;;4.60;2.30;;;;;;;4.02;58.89;98983.16;4992737;28;20033;-74
2022/04/18 05:24:36;;;;;;;3.13;1.83;;;;;;;4.09;58.86;98962.81;4985472;28;20034;-73
2022/04/18 05:27:01;;;;;;;6.07;2.10;;;;;;;4.24;57.98;98960.38;4992559;28;20034;-74
2022/04/18 05:29:27;;;;;;;6.50;2.33;;;;;;;4.55;58.94;98987.47;4992487;28;20057;-75
2022/04/18 05:31:52;;;;;;;6.20;2.63;;;;;;;4.54;59.54;98975.94;4998011;28;20030;-78
2022/04/18 05:34:17;;;;;;;3.92;1.77;;;;;;;4.48;60.31;98940.88;4997058;28;20057;-75
2022/04/18 05:36:43;;;;;;;4.43;2.08;;;;;;;4.68;61.70;98971.78;5005486;28;20046;-74
2022/04/18 05:39:08;;;;;;;3.30;2.28;;;;;;;4.66;61.30;98944.31;4990826;28;20034;-75
2022/04/18 05:41:33;;;;;;;4.97;2.97;;;;;;;4.89;60.52;98960.63;5004501;28;20476;-78
2022/04/18 05:43:58;;;;;;;4.40;2.45;;;;;;;5.31;59.08;98985.72;4987826;28;20032;-74
2022/04/18 05:46:26;;;;;;;4.78;2.33;;;;;;;5.52;57.91;98967.28;4995309;28;20025;-76
2022/04/18 05:48:51;;;;;;;3.83;2.20;;;;;;;5.98;57.51;98983.75;4989356;28;20036;-75
2022/04/18 05:51:16;;;;;;;6.03;2.53;;;;;;;5.78;57.58;98969.81;4985146;28;20077;-70
2022/04/18 05:53:42;;;;;;;4.78;2.10;;;;;;;7.13;54.52;98984.22;4993229;28;20035;-69
2022/04/18 05:56:07;;;;;;;5.07;2.28;;;;;;;9.46;48.42;98976.97;4995975;28;20026;-68
2022/04/18 05:58:32;;;;;;;3.78;2.10;;;;;;;11.80;42.47;98953.72;4993946;28;20030;-69
2022/04/18 06:00:58;;;;;;;3.20;2.30;;;;;;;13.86;36.87;98957.69;4995803;28;20022;-73
2022/04/18 06:03:23;;;;;;;3.85;1.90;;;;;;;15.56;34.39;98961.69;4993790;28;20046;-67
2022/04/18 06:05:50;;;;;;;4.13;2.13;;;;;;;16.57;31.65;98953.59;4994879;28;20068;-72
2022/04/18 06:08:15;;;;;;;4.80;3.00;;;;;;;17.02;31.84;98972.06;4986746;28;20034;-71
2022/04/18 06:10:41;;;;;;;4.15;2.13;;;;;;;17.02;31.30;98958.41;4986529;28;20654;-69
2022/04/18 06:13:10;;;;;;;3.58;2.50;;;;;;;16.26;31.92;98952.88;4994497;28;20035;-71
2022/04/18 06:15:36;;;;;;;4.28;2.55;;;;;;;17.34;31.32;98966.16;4993560;28;20037;-69
2022/04/18 06:18:01;;;;;;;5.60;2.75;;;;;;;17.25;31.38;98958.34;4984712;28;20034;-74
2022/04/18 06:20:26;;;;;;;4.40;2.47;;;;;;;16.37;32.67;98965.72;4987121;28;20380;-66
2022/04/18 06:22:52;;;;;;;5.13;2.40;;;;;;;17.05;32.06;98980.59;4995442;28;20042;-66
2022/04/18 06:25:17;;;;;;;3.50;2.67;;;;;;;17.89;30.80;98969.16;4991393;28;20157;-66
2022/04/18 06:27:42;;;;;;;6.40;2.78;;;;;;;18.43;29.55;98963.16;4994197;28;20381;-66
2022/04/18 06:30:08;;;;;;;6.32;2.50;;;;;;;18.26;30.35;98971.41;4989627;28;20022;-66
2022/04/18 06:32:37;;;;;;;5.25;3.00;;;;;;;18.77;29.04;98936.56;4990913;28;20506;-66
2022/04/18 06:35:04;;;;;;;4.05;2.63;;;;;;;18.88;28.89;98945.75;4982802;28;20034;-66
2022/04/18 06:37:29;;;;;;;4.78;3.08;;;;;;;20.16;27.24;98949.88;4984816;28;20057;-66
2022/04/18 06:39:55;;;;;;;3.53;2.28;;;;;;;20.67;26.18;98963.19;4988640;28;21265;-67
2022/04/18 06:42:20;;;;;;;3.25;2.10;;;;;;;22.43;24.61;98953.25;4984323;28;20026;-67
2022/04/18 06:44:45;;;;;;;4.68;2.28;;;;;;;24.02;22.86;98959.75;4988184;28;20031;-67
2022/04/18 06:47:11;;;;;;;4.97;2.20;;;;;;;23.84;22.16;98944.72;4984170;28;20472;-67
2022/04/18 06:49:37;;;;;;;4.43;2.28;;;;;;;24.08;22.37;98955.06;4987041;28;20080;-74
2022/04/18 06:52:03;;;;;;;3.03;1.85;;;;;;;24.06;22.57;98960.03;4985601;28;20056;-73
2022/04/18 06:54:28;;;;;;;4.07;2.08;;;;;;;24.27;22.01;98955.97;4989106;28;20049;-73
2022/04/18 06:57:00;;;;;;;4.05;2.45;;;;;;;25.39;20.77;98944.88;4993371;28;20034;-69
2022/04/18 06:59:30;;;;;;;3.50;2.25;;;;;;;26.69;20.18;98935.06;4983867;28;20412;-71
2022/04/18 07:01:55;;;;;;;;;;;;;;;27.22;19.12;98947.63;4990934;28;20026;-70
2022/04/18 07:04:21;;;;;;;3.60;2.15;;;;;;;27.38;18.44;98948.97;4990147;28;20322;-71
2022/04/18 07:06:46;;;;;;;7.68;2.10;;;;;;;27.14;19.42;98942.78;4990238;28;20025;-70
2022/04/18 07:09:11;;;;;;;4.55;2.40;;;;;;;27.24;19.46;98948.97;4993465;28;20022;-70
2022/04/18 07:11:37;;;;;;;3.53;2.30;;;;;;;25.77;20.67;98928.25;4994986;28;20476;-70
2022/04/18 07:14:02;;;;;;;4.28;2.22;;;;;;;25.79;20.52;98929.59;4994808;28;20034;-72
2022/04/18 07:16:31;;;;;;;4.13;2.50;;;;;;;24.44;20.57;98949.19;4989232;28;20052;-70
2022/04/18 07:18:58;;;;;;;3.03;2.20;;;;;;;25.59;20.46;98932.66;4986582;28;20037;-70
2022/04/18 07:21:24;;;;;;;3.15;2.15;;;;;;;26.77;19.47;98922.41;4994134;28;20484;-72
2022/04/18 07:23:49;;;;;;;2.72;2.17;;;;;;;27.30;18.84;98931.09;4994697;28;20041;-71
2022/04/18 07:26:14;;;;;;;3.63;1.95;;;;;;;28.53;18.18;98936.56;4991228;28;20026;-70
2022/04/18 07:28:39;;;;;;;3.72;2.42;;;;;;;28.11;17.92;98944.28;4989242;28;20034;-70
2022/04/18 07:31:06;;;;;;;3.70;2.28;;;;;;;28.09;17.73;98940.16;4974841;28;20543;-69
2022/04/18 07:33:33;;;;;;;7.13;2.40;;;;;;;26.93;18.68;98934.03;4992350;28;20026;-70
2022/04/18 07:35:58;;;;;;;4.13;2.47;;;;;;;26.23;18.68;98919.22;4988450;28;20042;-70
2022/04/18 07:41:07;;;;;;;3.33;2.17;;;;;;;27.68;18.21;98944.69;4989817;28;20041;-71
2022/04/18 07:43:35;;;;;;;3.58;2.38;;;;;;;27.41;18.53;98944.75;4993992;28;20117;-69
2022/04/18 07:46:02;;;;;;;5.53;2.40;;;;;;;27.83;19.11;98945.50;4990289;28;20034;-71
2022/04/18 07:48:29;;;;;;;4.55;2.55;;;;;;;27.97;17.84;98908.16;4994084;28;20274;-71
2022/04/18 07:53:37;;;;;;;6.63;2.38;;;;;;;25.38;19.28;98931.31;4987512;28;20522;-72
2022/04/18 07:56:03;;;;;;;6.35;2.60;;;;;;;26.52;19.02;98929.28;4991070;28;20030;-71
2022/04/18 07:58:28;;;;;;;3.58;2.00;;;;;;;28.24;18.27;98922.25;4991829;28;20026;-71
2022/04/18 08:00:54;;;;;;;4.13;2.38;;;;;;;27.63;17.75;98939.25;4993696;28;20018;-72
2022/04/18 08:03:19;;;;;;;4.50;2.47;;;;;;;29.30;16.29;98926.06;4985420;28;20026;-72
2022/04/18 08:05:44;;;;;;;4.18;2.30;;;;;;;26.88;17.99;98940.50;4990917;28;20045;-71
2022/04/18 08:08:10;;;;;;;4.50;2.15;;;;;;;27.75;17.76;98925.63;4992341;28;20029;-72
2022/04/18 08:10:38;;;;;;;4.40;2.30;;;;;;;27.65;18.02;98939.75;4992677;28;20037;-70
2022/04/18 08:13:04;;;;;;;2.73;2.00;;;;;;;28.34;16.90;98921.97;4984015;28;20026;-72
2022/04/18 08:15:31;;;;;;;2.83;1.88;;;;;;;26.84;19.04;98954.19;4988839;28;20290;-72
2022/04/18 08:17:57;;;;;;;3.40;2.13;;;;;;;25.02;19.77;98938.09;4989612;28;20030;-72
2022/04/18 08:20:22;;;;;;;4.50;1.88;;;;;;;26.63;19.26;98926.00;4989987;28;20052;-73
2022/04/18 08:22:47;;;;;;;5.03;2.10;;;;;;;27.00;18.35;98920.56;4993535;28;20037;-72
2022/04/18 08:25:13;;;;;;;3.67;2.28;;;;;;;26.22;19.58;98943.34;4986628;28;20026;-71
2022/04/18 08:27:38;;;;;;;3.10;2.08;;;;;;;26.82;19.56;98941.75;4991910;28;20108;-69
2022/04/18 08:30:05;;;;;;;3.42;1.95;;;;;;;26.45;18.68;98941.56;4989940;28;20034;-66
2022/04/18 08:32:36;;;;;;;5.13;2.10;;;;;;;25.85;18.79;98947.00;4993090;28;20029;-70
2022/04/18 08:35:02;;;;;;;4.85;1.95;;;;;;;26.17;18.88;98926.81;4991058;28;20125;-65
2022/04/18 08:37:27;;;;;;;4.55;2.08;;;;;;;25.72;19.94;98934.69;4985351;28;20046;-65
2022/04/18 08:39:52;;;;;;;3.55;2.20;;;;;;;26.64;17.87;98938.75;4985492;28;20019;-65
2022/04/18 08:42:21;;;;;;;3.17;1.90;;;;;;;24.33;20.13;98953.19;4988013;28;20042;-65
2022/04/18 08:44:49;;;;;;;2.60;2.03;;;;;;;24.51;19.59;98949.72;4991841;28;20109;-66
2022/04/18 08:52:43;;;;;;;4.40;2.00;;;;;;;25.71;19.27;98937.78;4988076;28;20030;-65
2022/04/18 08:52:45;;;;;;;2.80;1.70;;;;;;;26.81;18.40;98937.34;4985109;28;20036;-66
2022/04/18 08:55:11;;;;;;;3.10;1.83;;;;;;;26.15;19.01;98936.56;4986817;28;20154;-69
2022/04/18 08:57:36;;;;;;;3.40;1.73;;;;;;;26.84;17.67;98937.53;4984255;28;20117;-73
2022/04/18 09:00:03;;;;;;;5.80;1.83;;;;;;;26.69;18.26;98915.63;4992589;28;20025;-73
2022/04/18 09:02:29;;;;;;;2.83;2.08;;;;;;;25.98;18.92;98921.28;4991150;28;20033;-72
2022/04/18 09:04:55;;;;;;;2.63;1.55;;;;;;;25.86;18.76;98881.28;4987704;28;20061;-72
2022/04/18 09:07:22;;;;;;;3.00;1.80;;;;;;;26.41;18.17;98934.16;4990696;28;20029;-73
2022/04/18 09:09:54;;;;;;;3.03;2.05;;;;;;;25.76;18.00;98932.97;4992539;28;20077;-73
2022/04/18 09:12:21;;;;;;;3.53;2.10;;;;;;;25.06;18.49;98903.16;4991521;28;20030;-73
2022/04/18 09:14:48;;;;;;;3.35;2.25;;;;;;;25.10;20.06;98931.09;4984257;28;20096;-72
2022/04/18 09:17:33;;;;;;;4.70;2.20;;;;;;;25.04;19.03;98913.69;4990050;28;20030;-73
2022/04/18 09:20:14;;;;;;;4.03;2.10;;;;;;;27.25;17.15;98914.53;4987170;28;20121;-73
2022/04/18 09:22:48;;;;;;;3.53;1.98;;;;;;;26.39;17.49;98919.78;4990188;28;20022;-70
2022/04/18 09:25:22;;;;;;;6.60;2.33;;;;;;;25.68;18.09;98910.66;4991679;28;20104;-71
2022/04/18 09:27:54;;;;;;;2.70;1.92;;;;;;;24.51;18.27;98902.69;4981739;28;20030;-71
2022/04/18 09:30:20;;;;;;;3.20;2.10;;;;;;;23.79;18.53;98895.03;4988353;28;20060;-71
2022/04/18 09:33:04;;;;;;;3.53;1.90;;;;;;;22.84;20.28;98887.75;4986279;28;20022;-71
2022/04/18 09:35:30;;;;;;;6.53;3.33;;;;;;;23.38;20.34;98900.78;4986986;28;20050;-70
2022/04/18 09:38:06;;;;;;;6.15;3.05;;;;;;;24.10;19.46;98908.56;4982138;28;20058;-71
2022/04/18 09:40:32;;;;;;;4.15;2.30;;;;;;;23.91;19.64;98905.69;4986382;28;20124;-71
2022/04/18 09:42:58;;;;;;;6.88;2.58;;;;;;;23.97;19.42;98895.41;4986872;28;20034;-72
2022/04/18 09:45:23;;;;;;;6.30;2.67;;;;;;;23.51;20.05;98887.47;4986595;28;20796;-72
2022/04/18 09:48:02;;;;;;;4.28;2.03;;;;;;;23.40;20.98;98893.03;4987596;28;20105;-72
2022/04/18 09:53:22;;;;;;;2.78;1.98;;;;;;;24.68;19.27;98872.63;4987195;28;20471;-72
2022/04/18 09:55:50;;;;;;;4.75;1.88;;;;;;;24.89;18.96;98889.00;4985874;28;20030;-72
2022/04/18 09:58:16;;;;;;;5.03;1.90;;;;;;;25.64;18.38;98881.91;4983424;28;20110;-71
2022/04/18 10:00:42;;;;;;;4.60;2.10;;;;;;;26.19;18.42;98843.28;4982178;28;20121;-71
2022/04/18 10:03:08;;;;;;;4.35;2.08;;;;;;;26.92;17.39;98874.91;4985680;28;20030;-71
2022/04/18 10:05:34;;;;;;;3.00;2.08;;;;;;;27.79;16.56;98872.16;4986368;28;20041;-71
2022/04/18 10:08:03;;;;;;;2.95;1.80;;;;;;;27.61;16.75;98885.91;4986037;28;20026;-71
2022/04/18 10:10:32;;;;;;;3.58;1.85;;;;;;;26.97;17.52;98866.50;4983063;28;20031;-71
2022/04/18 10:12:57;;;;;;;2.88;1.95;;;;;;;27.43;17.63;98878.56;4984622;28;20057;-71
2022/04/18 10:15:23;;;;;;;3.95;2.53;;;;;;;27.20;17.02;98861.84;4985923;28;20721;-71
2022/04/18 10:17:50;;;;;;;6.63;5.00;;;;;;;25.73;17.92;98855.97;4984153;28;20045;-71
2022/04/18 10:20:37;;;;;;;5.32;3.28;;;;;;;24.31;18.76;98878.78;4986903;28;21065;-70
2022/04/18 10:23:32;;;;;;;5.10;2.15;;;;;;;24.37;19.53;98869.34;4983869;28;20031;-70
2022/04/18 10:26:03;;;;;;;4.00;2.22;;;;;;;24.56;18.99;98852.84;4983233;28;20057;-70
2022/04/18 10:28:35;;;;;;;2.78;2.00;;;;;;;24.18;19.89;98857.38;4988788;28;20787;-70
2022/04/18 10:31:07;;;;;;;3.00;1.73;;;;;;;24.65;18.81;98853.00;4992476;28;20130;-70
2022/04/18 10:33:34;;;;;;;3.30;1.77;;;;;;;25.09;18.86;98841.66;4986185;28;20134;-70
2022/04/18 10:36:01;;;;;;;3.15;1.83;;;;;;;25.88;17.81;98848.56;4989809;28;20659;-70
2022/04/18 10:38:33;;;;;;;3.17;2.08;;;;;;;24.75;19.46;98852.06;4983338;28;20026;-70
2022/04/18 10:41:17;;;;;;;2.72;1.85;;;;;;;25.32;18.30;98839.16;4985513;28;20088;-70
2022/04/18 10:43:59;;;;;;;2.72;1.90;;;;;;;24.45;19.05;98840.25;4990269;28;20030;-70
2022/04/18 10:46:24;;;;;;;3.83;1.85;;;;;;;25.56;18.15;98831.56;4992557;28;20031;-70
2022/04/18 10:48:57;;;;;;;4.97;1.88;;;;;;;25.47;18.72;98819.53;4987487;28;20104;-70
2022/04/18 10:51:36;;;;;;;3.90;1.75;;;;;;;25.61;18.56;98827.91;4988884;28;20041;-70
2022/04/18 10:54:07;;;;;;;3.53;1.92;;;;;;;25.44;18.43;98808.22;4988700;28;20030;-71
2022/04/18 10:56:54;;;;;;;4.00;2.08;;;;;;;23.88;19.90;98828.09;4991473;28;20084;-69
2022/04/18 10:59:34;;;;;;;7.20;2.53;;;;;;;25.30;19.25;98822.00;4990606;28;20131;-70
2022/04/18 11:02:02;;;;;;;4.93;2.22;;;;;;;24.84;19.83;98831.75;4985214;28;20105;-70
2022/04/18 11:04:29;;;;;;;3.53;2.00;;;;;;;24.03;19.63;98823.25;4988790;28;20026;-70
2022/04/18 11:07:05;;;;;;;4.45;2.35;;;;;;;26.04;18.59;98822.19;4989183;28;20018;-70
2022/04/18 11:09:36;;;;;;;3.35;1.80;;;;;;;27.94;16.55;98814.25;4985250;28;20113;-70
2022/04/18 11:12:13;;;;;;;3.20;1.90;;;;;;;27.39;16.72;98802.53;4990186;28;20104;-70
2022/04/18 11:14:38;;;;;;;3.00;1.80;;;;;;;25.03;18.42;98812.41;4987699;28;20072;-70
2022/04/18 11:17:05;;;;;;;2.67;1.77;;;;;;;26.18;17.59;98800.88;4991806;28;20467;-70
2022/04/18 11:19:35;;;;;;;3.42;2.55;;;;;;;26.29;18.52;98797.91;4993510;28;20392;-70
2022/04/18 11:22:01;;;;;;;1.85;1.60;;;;;;;26.99;17.70;98797.59;5005941;28;20034;-70
2022/04/18 11:24:57;;;;;;;3.58;1.95;;;;;;;26.45;18.38;98793.69;4982752;28;20037;-70
2022/04/18 11:27:33;;;;;;;3.35;1.73;;;;;;;28.03;17.12;98792.03;4988317;28;20030;-71
2022/04/18 11:30:00;;;;;;;3.35;1.80;;;;;;;28.86;16.53;98788.59;4992168;28;20030;-71
2022/04/18 11:32:35;;;;;;;2.70;1.65;;;;;;;25.61;18.01;98788.28;4988012;28;20050;-71
2022/04/18 11:35:02;;;;;;;3.50;2.03;;;;;;;27.26;16.60;98776.44;4990623;28;20081;-71
2022/04/18 11:37:31;;;;;;;3.53;2.15;;;;;;;26.89;17.02;98761.72;4986330;28;20022;-71
2022/04/18 11:39:59;;;;;;;4.75;1.70;;;;;;;26.72;17.82;98784.56;4991686;28;20022;-71
2022/04/18 11:42:27;;;;;;;3.53;1.92;;;;;;;26.79;17.17;98796.06;4987628;28;20030;-70
2022/04/18 11:44:55;;;;;;;2.50;1.60;;;;;;;27.45;18.34;98765.16;4986716;28;20032;-71
2022/04/18 11:47:26;;;;;;;2.97;1.67;;;;;;;28.18;16.16;98780.50;4989062;28;20092;-71
2022/04/18 11:50:00;;;;;;;4.03;1.73;;;;;;;29.05;15.99;98764.06;4991055;28;20023;-70
2022/04/18 11:52:28;;;;;;;2.60;1.48;;;;;;;29.08;15.44;98759.00;4990853;28;20054;-72
2022/04/18 11:54:54;;;;;;;2.23;1.47;;;;;;;27.36;17.50;98764.28;4982602;28;20388;-70
2022/04/18 11:57:19;;;;;;;6.80;4.03;;;;;;;27.08;18.05;98767.13;4988792;28;20476;-70